createdAt,value
2019-02-21T00:01:49.993Z,5.61
2019-02-21T00:04:25.903Z,5.62
2019-02-21T00:06:55.489Z,5.42
2019-02-21T00:09:24.826Z,5.37
2019-02-21T00:11:54.153Z,5.33
2019-02-21T00:14:23.487Z,5.33
2019-02-21T00:16:52.852Z,5.30
2019-02-21T00:19:22.177Z,5.26
2019-02-21T00:21:51.538Z,5.32
2019-02-21T00:24:20.872Z,5.33
2019-02-21T00:26:50.203Z,5.32
2019-02-21T00:29:19.585Z,5.22
2019-02-21T00:31:49.204Z,5.14
2019-02-21T00:34:18.508Z,5.20
2019-02-21T00:36:48.191Z,5.16
2019-02-21T00:39:17.560Z,5.12
2019-02-21T00:41:46.895Z,5.05
2019-02-21T00:44:16.569Z,5.06
2019-02-21T00:46:45.916Z,5.07
2019-02-21T00:49:15.585Z,5.07
2019-02-21T00:51:44.942Z,5.07
2019-02-21T00:54:14.272Z,5.02
2019-02-21T00:56:43.583Z,5.00
2019-02-21T00:59:12.902Z,5.01
2019-02-21T01:01:42.224Z,4.95
2019-02-21T01:04:11.556Z,4.92
2019-02-21T01:06:41.177Z,4.87
2019-02-21T01:09:10.497Z,4.90
2019-02-21T01:11:40.081Z,4.92
2019-02-21T01:14:09.756Z,4.94
2019-02-21T01:16:39.079Z,4.91
2019-02-21T01:19:08.407Z,4.92
2019-02-21T01:21:38.012Z,4.90
2019-02-21T01:24:07.352Z,4.94
2019-02-21T01:26:36.702Z,4.85
2019-02-21T01:29:06.020Z,4.80
2019-02-21T01:31:38.018Z,4.79
2019-02-21T01:34:07.351Z,4.85
2019-02-21T01:36:36.686Z,4.77
2019-02-21T01:39:06.905Z,4.78
2019-02-21T01:41:36.252Z,4.71
2019-02-21T01:44:05.645Z,4.70
2019-02-21T01:46:35.252Z,4.63
2019-02-21T01:49:04.587Z,4.61
2019-02-21T01:51:35.575Z,4.58
2019-02-21T01:54:04.883Z,4.60
2019-02-21T01:56:34.494Z,4.60
2019-02-21T01:59:03.850Z,4.65
2019-02-21T02:01:33.652Z,4.56
2019-02-21T02:04:03.221Z,4.47
2019-02-21T02:06:32.605Z,4.41
2019-02-21T02:09:01.914Z,4.43
2019-02-21T02:11:31.543Z,4.38
2019-02-21T02:14:00.898Z,4.35
2019-02-21T02:16:30.242Z,4.37
2019-02-21T02:18:59.606Z,4.33
2019-02-21T02:21:28.940Z,4.24
2019-02-21T02:23:58.666Z,4.19
2019-02-21T02:26:28.265Z,4.21
2019-02-21T02:28:57.615Z,4.16
2019-02-21T02:31:27.236Z,4.11
2019-02-21T02:33:56.815Z,4.08
2019-02-21T02:36:26.436Z,4.03
2019-02-21T02:38:56.041Z,3.99
2019-02-21T02:41:25.662Z,4.08
2019-02-21T02:43:55.264Z,4.02
2019-02-21T02:46:24.638Z,3.98
2019-02-21T02:48:53.960Z,4.16
2019-02-21T02:51:23.281Z,4.16
2019-02-21T02:53:52.983Z,4.15
2019-02-21T02:56:22.277Z,4.18
2019-02-21T02:58:52.325Z,4.18
2019-02-21T03:01:34.043Z,4.19
2019-02-21T03:03:52.966Z,4.11
2019-02-21T03:06:22.309Z,4.06
2019-02-21T03:08:51.877Z,4.01
2019-02-21T03:11:21.219Z,3.96
2019-02-21T03:13:50.804Z,3.96
2019-02-21T03:16:20.372Z,4.00
2019-02-21T03:18:49.702Z,3.90
2019-02-21T03:21:19.060Z,3.88
2019-02-21T03:23:48.647Z,4.02
2019-02-21T03:26:18.313Z,4.03
2019-02-21T03:28:47.937Z,3.98
2019-02-21T03:31:17.280Z,3.87
2019-02-21T03:33:46.742Z,3.79
2019-02-21T03:36:16.099Z,3.77
2019-02-21T03:38:45.434Z,3.68
2019-02-21T03:41:14.821Z,3.65
2019-02-21T03:43:44.152Z,3.72
2019-02-21T03:46:13.525Z,3.72
2019-02-21T03:48:43.128Z,3.60
2019-02-21T03:51:12.509Z,3.55
2019-02-21T03:53:41.826Z,3.57
2019-02-21T03:56:11.181Z,3.50
2019-02-21T03:58:40.535Z,3.60
2019-02-21T04:01:10.146Z,3.53
2019-02-21T04:03:39.864Z,3.52
2019-02-21T04:06:09.475Z,3.56
2019-02-21T04:08:38.819Z,3.49
2019-02-21T04:11:08.119Z,3.55
2019-02-21T04:13:37.480Z,3.60
2019-02-21T04:16:07.183Z,3.61
2019-02-21T04:18:36.783Z,3.63
2019-02-21T04:21:06.140Z,3.67
2019-02-21T04:23:35.765Z,3.66
2019-02-21T04:26:05.354Z,3.69
2019-02-21T04:28:34.721Z,3.73
2019-02-21T04:31:04.057Z,3.90
2019-02-21T04:33:34.507Z,3.94
2019-02-21T04:36:03.956Z,3.92
2019-02-21T04:38:33.289Z,3.91
2019-02-21T04:41:02.858Z,3.91
2019-02-21T04:43:32.484Z,4.00
2019-02-21T04:46:02.240Z,3.90
2019-02-21T04:48:31.543Z,3.88
2019-02-21T04:51:00.878Z,3.93
2019-02-21T04:53:30.223Z,3.94
2019-02-21T04:55:59.547Z,3.94
2019-02-21T04:58:28.877Z,4.07
2019-02-21T05:00:58.202Z,3.91
2019-02-21T05:03:27.788Z,3.95
2019-02-21T05:05:57.373Z,3.94
2019-02-21T05:08:26.960Z,3.92
2019-02-21T05:10:56.279Z,3.97
2019-02-21T05:13:25.630Z,3.66
2019-02-21T05:15:55.196Z,3.99
2019-02-21T05:18:24.523Z,4.16
2019-02-21T05:20:53.851Z,4.15
2019-02-21T05:23:23.468Z,4.16
2019-02-21T05:25:52.787Z,4.34
2019-02-21T05:28:32.189Z,4.23
2019-02-21T05:31:03.447Z,4.22
2019-02-21T05:33:40.398Z,4.20
2019-02-21T05:36:15.152Z,4.20
2019-02-21T05:38:46.403Z,4.18
2019-02-21T05:41:19.964Z,4.23
2019-02-21T05:43:50.955Z,4.22
2019-02-21T05:46:24.594Z,4.10
2019-02-21T05:48:55.585Z,4.20
2019-02-21T05:51:26.539Z,4.07
2019-02-21T05:53:57.815Z,4.13
2019-02-21T05:56:28.754Z,4.26
2019-02-21T05:59:02.828Z,4.26
2019-02-21T06:01:39.910Z,4.22
2019-02-21T06:04:22.722Z,4.19
2019-02-21T06:06:56.733Z,4.27
2019-02-21T06:09:33.657Z,4.30
2019-02-21T06:12:32.887Z,4.28
2019-02-21T06:14:53.757Z,4.37
2019-02-21T06:17:27.389Z,4.38
2019-02-21T06:20:04.555Z,4.40
2019-02-21T06:22:41.437Z,4.48
2019-02-21T06:25:21.467Z,4.46
2019-02-21T06:28:07.257Z,4.51
2019-02-21T06:30:38.488Z,4.48
2019-02-21T06:33:08.079Z,4.50
2019-02-21T06:35:37.419Z,4.59
2019-02-21T06:38:06.779Z,4.64
2019-02-21T06:40:36.615Z,4.75
2019-02-21T06:43:06.042Z,4.82
2019-02-21T06:45:35.328Z,4.84
2019-02-21T06:48:04.954Z,4.87
2019-02-21T06:50:34.262Z,4.95
2019-02-21T06:53:03.830Z,4.97
2019-02-21T06:55:33.150Z,4.97
2019-02-21T06:58:02.481Z,4.75
2019-02-21T07:00:31.792Z,4.98
2019-02-21T07:03:01.127Z,4.94
2019-02-21T07:05:30.428Z,5.02
2019-02-21T07:07:59.748Z,5.02
2019-02-21T07:10:29.355Z,4.95
2019-02-21T07:12:58.969Z,5.01
2019-02-21T07:15:28.332Z,5.18
2019-02-21T07:17:58.450Z,5.16
2019-02-21T07:20:28.175Z,5.19
2019-02-21T07:22:57.761Z,5.30
2019-02-21T07:25:29.047Z,5.37
2019-02-21T07:27:58.533Z,5.18
2019-02-21T07:30:28.104Z,5.13
2019-02-21T07:32:57.464Z,5.05
2019-02-21T07:35:27.036Z,5.33
2019-02-21T07:37:56.365Z,5.42
2019-02-21T07:40:25.968Z,5.76
2019-02-21T07:42:55.642Z,5.99
2019-02-21T07:45:24.968Z,6.22
2019-02-21T07:47:54.458Z,6.29
2019-02-21T07:50:23.895Z,6.38
2019-02-21T07:53:02.098Z,6.47
2019-02-21T07:55:24.871Z,6.52
2019-02-21T07:57:54.481Z,6.28
2019-02-21T08:00:23.793Z,6.21
2019-02-21T08:02:53.449Z,6.25
2019-02-21T08:05:23.693Z,6.33
2019-02-21T08:07:53.192Z,6.46
2019-02-21T08:10:33.118Z,6.54
2019-02-21T08:12:54.130Z,6.73
2019-02-21T08:15:23.439Z,6.96
2019-02-21T08:17:52.784Z,6.89
2019-02-21T08:20:33.229Z,7.14
2019-02-21T08:22:53.698Z,7.50
2019-02-21T08:25:23.067Z,7.65
2019-02-21T08:27:52.681Z,7.65
2019-02-21T08:30:22.124Z,7.69
2019-02-21T08:33:08.157Z,7.91
2019-02-21T08:35:37.523Z,8.09
2019-02-21T08:38:07.134Z,8.29
2019-02-21T08:40:36.914Z,8.16
2019-02-21T08:43:09.105Z,8.11
2019-02-21T08:45:38.413Z,8.16
2019-02-21T08:48:08.040Z,8.27
2019-02-21T08:50:37.657Z,8.45
2019-02-21T08:53:07.234Z,8.71
2019-02-21T08:55:36.810Z,8.93
2019-02-21T08:58:07.884Z,8.80
2019-02-21T09:00:37.355Z,9.14
2019-02-21T09:03:06.926Z,9.08
2019-02-21T09:05:36.267Z,9.24
2019-02-21T09:08:05.847Z,9.34
2019-02-21T09:10:35.161Z,9.48
2019-02-21T09:13:04.622Z,9.57
2019-02-21T09:15:33.940Z,9.73
2019-02-21T09:18:03.540Z,9.89
2019-02-21T09:20:32.863Z,10.06
2019-02-21T09:23:02.234Z,10.26
2019-02-21T09:25:31.843Z,10.15
2019-02-21T09:28:01.255Z,10.55
2019-02-21T09:30:30.606Z,10.49
2019-02-21T09:33:00.075Z,10.63
2019-02-21T09:35:29.481Z,10.71
2019-02-21T09:37:59.098Z,10.30
2019-02-21T09:40:28.805Z,10.29
2019-02-21T09:42:58.433Z,10.48
2019-02-21T09:45:28.046Z,10.45
2019-02-21T09:47:57.452Z,10.41
2019-02-21T09:50:27.126Z,10.38
2019-02-21T09:52:56.732Z,10.37
2019-02-21T09:55:26.317Z,10.44
2019-02-21T09:57:55.934Z,10.50
2019-02-21T10:00:25.641Z,10.50
2019-02-21T10:02:56.698Z,10.78
2019-02-21T10:05:26.494Z,10.99
2019-02-21T10:07:55.866Z,11.16
2019-02-21T10:10:25.440Z,11.34
2019-02-21T10:12:55.056Z,11.27
2019-02-21T10:15:24.656Z,11.29
2019-02-21T10:17:53.983Z,11.61
2019-02-21T10:20:23.949Z,11.92
2019-02-21T10:22:53.281Z,11.86
2019-02-21T10:25:26.100Z,11.51
2019-02-21T10:27:55.684Z,11.64
2019-02-21T10:30:25.348Z,11.43
2019-02-21T10:32:54.680Z,11.44
2019-02-21T10:35:24.371Z,11.31
2019-02-21T10:37:53.971Z,11.18
2019-02-21T10:40:23.292Z,11.22
2019-02-21T10:42:52.887Z,11.06
2019-02-21T10:45:23.305Z,11.11
2019-02-21T10:47:52.617Z,10.94
2019-02-21T10:50:22.578Z,10.94
2019-02-21T10:52:51.918Z,10.59
2019-02-21T10:55:21.527Z,10.45
2019-02-21T10:57:50.892Z,10.48
2019-02-21T11:00:27.627Z,10.28
2019-02-21T11:02:57.347Z,10.23
2019-02-21T11:05:26.685Z,10.10
2019-02-21T11:07:56.327Z,10.14
2019-02-21T11:10:30.670Z,9.86
2019-02-21T11:13:00.017Z,9.84
2019-02-21T11:15:29.338Z,9.78
2019-02-21T11:17:58.933Z,9.65
2019-02-21T11:20:28.558Z,9.80
2019-02-21T11:22:57.872Z,9.69
2019-02-21T11:25:27.459Z,9.66
2019-02-21T11:27:56.797Z,9.62
2019-02-21T11:30:26.445Z,9.59
2019-02-21T11:32:55.794Z,9.55
2019-02-21T11:35:25.106Z,9.84
2019-02-21T11:37:54.440Z,9.93
2019-02-21T11:40:24.088Z,10.00
2019-02-21T11:42:53.682Z,9.59
2019-02-21T11:45:23.001Z,9.72
2019-02-21T11:47:52.560Z,9.69
2019-02-21T11:50:21.914Z,9.58
2019-02-21T11:52:51.224Z,9.38
2019-02-21T11:55:25.659Z,9.50
2019-02-21T11:57:54.992Z,9.68
2019-02-21T12:00:31.530Z,9.73
2019-02-21T12:03:01.125Z,10.02
2019-02-21T12:05:31.905Z,10.15
2019-02-21T12:08:01.632Z,10.06
2019-02-21T12:10:30.972Z,10.23
2019-02-21T12:13:00.609Z,10.42
2019-02-21T12:15:30.219Z,10.43
2019-02-21T12:17:59.814Z,10.28
2019-02-21T12:20:29.531Z,10.06
2019-02-21T12:22:59.207Z,10.10
2019-02-21T12:25:28.541Z,10.12
2019-02-21T12:27:58.191Z,10.05
2019-02-21T12:30:27.787Z,10.20
2019-02-21T12:32:57.501Z,10.24
2019-02-21T12:35:29.896Z,10.27
2019-02-21T12:37:58.454Z,10.59
2019-02-21T12:40:28.054Z,10.93
2019-02-21T12:42:57.388Z,11.01
2019-02-21T12:45:30.212Z,11.27
2019-02-21T12:47:59.606Z,11.00
2019-02-21T12:50:28.950Z,10.88
2019-02-21T12:52:58.534Z,11.20
2019-02-21T12:55:31.594Z,11.22
2019-02-21T12:57:59.217Z,11.11
2019-02-21T13:00:28.557Z,11.13
2019-02-21T13:02:57.926Z,11.27
2019-02-21T13:05:27.269Z,11.53
2019-02-21T13:07:56.595Z,11.30
2019-02-21T13:10:26.229Z,11.24
2019-02-21T13:12:55.560Z,11.30
2019-02-21T13:15:25.173Z,11.26
2019-02-21T13:17:54.787Z,11.50
2019-02-21T13:20:24.123Z,11.62
2019-02-21T13:22:53.738Z,11.63
2019-02-21T13:25:23.053Z,11.66
2019-02-21T13:27:52.400Z,11.46
2019-02-21T13:30:22.021Z,11.61
2019-02-21T13:32:51.631Z,11.41
2019-02-21T13:35:21.243Z,11.40
2019-02-21T13:37:50.936Z,11.27
2019-02-21T13:40:21.329Z,11.49
2019-02-21T13:42:50.966Z,11.46
2019-02-21T13:45:20.313Z,11.46
2019-02-21T13:47:50.033Z,11.53
2019-02-21T13:50:23.710Z,11.67
2019-02-21T13:52:52.675Z,11.56
2019-02-21T13:55:22.321Z,11.66
2019-02-21T13:57:51.999Z,11.46
2019-02-21T14:00:24.911Z,11.54
2019-02-21T14:02:54.258Z,11.68
2019-02-21T14:05:24.057Z,11.70
2019-02-21T14:07:53.399Z,11.54
2019-02-21T14:10:22.730Z,11.79
2019-02-21T14:12:52.432Z,11.66
2019-02-21T14:15:30.210Z,11.55
2019-02-21T14:17:59.829Z,11.46
2019-02-21T14:20:29.433Z,11.22
2019-02-21T14:22:59.156Z,11.32
2019-02-21T14:25:40.001Z,11.35
2019-02-21T14:28:00.320Z,11.54
2019-02-21T14:30:30.057Z,11.57
2019-02-21T14:32:59.672Z,11.73
2019-02-21T14:35:28.995Z,11.61
2019-02-21T14:37:58.621Z,11.66
2019-02-21T14:40:27.966Z,11.51
2019-02-21T14:42:57.285Z,11.52
2019-02-21T14:45:27.280Z,11.37
2019-02-21T14:47:56.974Z,11.32
2019-02-21T14:50:26.576Z,11.23
2019-02-21T14:52:55.918Z,11.23
2019-02-21T14:55:25.579Z,11.22
2019-02-21T14:57:55.171Z,11.05
2019-02-21T15:00:30.001Z,11.07
2019-02-21T15:02:59.619Z,10.90
2019-02-21T15:05:29.013Z,10.88
2019-02-21T15:07:58.347Z,10.86
2019-02-21T15:10:27.722Z,10.79
2019-02-21T15:12:57.042Z,10.75
2019-02-21T15:15:27.700Z,10.72
2019-02-21T15:18:06.847Z,10.68
2019-02-21T15:20:36.440Z,10.72
2019-02-21T15:22:59.240Z,10.76
2019-02-21T15:25:28.769Z,10.73
2019-02-21T15:27:58.497Z,10.63
2019-02-21T15:30:28.096Z,10.64
2019-02-21T15:32:57.725Z,10.67
2019-02-21T15:35:27.065Z,10.66
2019-02-21T15:37:56.697Z,10.71
2019-02-21T15:40:26.008Z,10.68
2019-02-21T15:42:55.351Z,10.57
2019-02-21T15:45:27.739Z,10.51
2019-02-21T15:47:57.105Z,10.58
2019-02-21T15:50:26.420Z,10.52
2019-02-21T15:52:57.402Z,10.58
2019-02-21T15:55:27.035Z,10.53
2019-02-21T15:58:04.028Z,10.65
2019-02-21T16:00:27.475Z,10.52
2019-02-21T16:02:56.794Z,10.58
2019-02-21T16:05:26.411Z,10.55
2019-02-21T16:07:55.755Z,10.51
2019-02-21T16:10:29.103Z,10.46
2019-02-21T16:12:58.832Z,10.55
2019-02-21T16:15:30.335Z,10.55
2019-02-21T16:18:00.039Z,10.52
2019-02-21T16:20:29.741Z,10.51
2019-02-21T16:22:59.452Z,10.48
2019-02-21T16:25:33.666Z,10.40
2019-02-21T16:28:03.039Z,10.40
2019-02-21T16:30:32.414Z,10.41
2019-02-21T16:33:01.837Z,10.43
2019-02-21T16:35:31.407Z,10.40
2019-02-21T16:38:00.775Z,10.38
2019-02-21T16:40:30.450Z,10.51
2019-02-21T16:43:00.167Z,10.48
2019-02-21T16:45:42.467Z,10.34
2019-02-21T16:48:00.584Z,10.45
2019-02-21T16:50:30.391Z,10.34
2019-02-21T16:52:59.941Z,10.45
2019-02-21T16:55:30.180Z,10.35
2019-02-21T16:57:59.785Z,10.29
2019-02-21T17:00:38.937Z,10.35
2019-02-21T17:03:00.408Z,10.39
2019-02-21T17:05:30.068Z,10.34
2019-02-21T17:07:59.652Z,10.38
2019-02-21T17:10:28.997Z,10.24
2019-02-21T17:12:58.375Z,10.30
2019-02-21T17:15:27.712Z,10.30
2019-02-21T17:17:57.082Z,10.23
2019-02-21T17:20:26.824Z,10.22
2019-02-21T17:22:56.476Z,10.33
2019-02-21T17:25:25.807Z,10.24
2019-02-21T17:27:55.426Z,10.21
2019-02-21T17:30:24.799Z,10.14
2019-02-21T17:32:54.497Z,10.10
2019-02-21T17:35:24.209Z,10.00
2019-02-21T17:37:53.784Z,9.98
2019-02-21T17:40:25.044Z,10.05
2019-02-21T17:42:54.360Z,9.82
2019-02-21T17:45:24.032Z,9.93
2019-02-21T17:47:53.368Z,9.92
2019-02-21T17:50:22.680Z,9.86
2019-02-21T17:52:52.270Z,9.91
2019-02-21T17:55:21.616Z,9.88
2019-02-21T17:57:51.294Z,9.85
2019-02-21T18:00:27.327Z,9.91
2019-02-21T18:02:56.683Z,9.92
2019-02-21T18:05:26.097Z,10.00
2019-02-21T18:07:55.694Z,9.89
2019-02-21T18:10:25.037Z,9.81
2019-02-21T18:12:54.365Z,9.85
2019-02-21T18:15:23.783Z,9.84
2019-02-21T18:17:53.384Z,9.87
2019-02-21T18:20:22.703Z,9.83
2019-02-21T18:22:52.314Z,9.80
2019-02-21T18:25:38.477Z,9.86
2019-02-21T18:28:08.071Z,9.79
2019-02-21T18:30:37.446Z,9.68
2019-02-21T18:33:06.828Z,9.65
2019-02-21T18:35:36.189Z,9.72
2019-02-21T18:38:05.520Z,9.65
2019-02-21T18:40:34.858Z,9.77
2019-02-21T18:43:04.501Z,9.84
2019-02-21T18:45:34.111Z,9.73
2019-02-21T18:48:03.511Z,9.70
2019-02-21T18:50:38.190Z,9.59
2019-02-21T18:53:04.584Z,9.50
2019-02-21T18:55:34.167Z,9.42
2019-02-21T18:58:03.536Z,9.36
2019-02-21T19:00:33.185Z,9.44
2019-02-21T19:03:02.791Z,9.22
2019-02-21T19:05:35.999Z,9.24
2019-02-21T19:08:05.360Z,9.29
2019-02-21T19:10:34.892Z,9.31
2019-02-21T19:13:04.470Z,9.32
2019-02-21T19:15:34.219Z,9.18
2019-02-21T19:20:33.175Z,9.23
2019-02-21T19:23:02.835Z,9.26
2019-02-21T19:25:32.145Z,9.26
2019-02-21T19:28:01.766Z,9.33
2019-02-21T19:30:51.055Z,9.35
2019-02-21T19:33:20.693Z,9.39
2019-02-21T19:35:50.173Z,9.33
2019-02-21T19:38:19.862Z,9.27
2019-02-21T19:40:49.234Z,9.22
2019-02-21T19:43:18.594Z,9.27
2019-02-21T19:45:48.172Z,9.33
2019-02-21T19:48:17.493Z,9.26
2019-02-21T19:50:46.930Z,9.26
2019-02-21T19:53:16.578Z,9.35
2019-02-21T19:55:45.900Z,9.34
2019-02-21T19:58:15.498Z,9.29
2019-02-21T20:00:44.827Z,9.29
2019-02-21T20:03:14.539Z,9.36
2019-02-21T20:05:44.185Z,9.22
2019-02-21T20:08:20.926Z,9.17
2019-02-21T20:10:44.646Z,9.15
2019-02-21T20:13:15.258Z,9.28
2019-02-21T20:15:45.144Z,9.34
2019-02-21T20:18:14.785Z,9.22
2019-02-21T20:20:44.123Z,9.13
2019-02-21T20:23:13.728Z,9.16
2019-02-21T20:25:43.071Z,9.12
2019-02-21T20:28:12.664Z,9.10
2019-02-21T20:30:42.049Z,9.12
2019-02-21T20:33:11.664Z,9.23
2019-02-21T20:35:41.279Z,9.13
2019-02-21T20:38:10.632Z,9.13
2019-02-21T20:40:39.988Z,9.14
2019-02-21T20:43:09.684Z,9.18
2019-02-21T20:45:39.290Z,9.16
2019-02-21T20:48:08.866Z,9.16
2019-02-21T20:50:38.571Z,9.15
2019-02-21T20:53:07.878Z,9.12
2019-02-21T20:55:43.857Z,9.15
2019-02-21T20:58:11.497Z,9.18
2019-02-21T21:00:40.034Z,9.16
2019-02-21T21:03:09.406Z,9.04
2019-02-21T21:05:39.014Z,8.99
2019-02-21T21:08:08.733Z,8.97
2019-02-21T21:10:38.304Z,8.98
2019-02-21T21:13:07.930Z,8.84
2019-02-21T21:15:37.838Z,8.96
2019-02-21T21:18:07.434Z,8.91
2019-02-21T21:20:37.140Z,8.91
2019-02-21T21:23:06.750Z,8.90
2019-02-21T21:25:36.478Z,8.78
2019-02-21T21:28:06.177Z,8.80
2019-02-21T21:30:35.897Z,8.80
2019-02-21T21:33:05.223Z,8.89
2019-02-21T21:35:34.887Z,8.91
2019-02-21T21:38:04.491Z,8.79
2019-02-21T21:40:33.811Z,8.73
2019-02-21T21:43:03.158Z,8.86
2019-02-21T21:45:32.461Z,8.81
2019-02-21T21:48:02.103Z,8.78
2019-02-21T21:50:31.440Z,8.74
2019-02-21T21:53:00.752Z,8.70
2019-02-21T21:55:30.410Z,8.63
2019-02-21T21:57:59.769Z,8.72
2019-02-21T22:00:29.072Z,8.70
2019-02-21T22:02:58.713Z,8.62
2019-02-21T22:05:28.046Z,8.61
2019-02-21T22:07:57.731Z,8.58
2019-02-21T22:10:27.060Z,8.53
2019-02-21T22:12:56.737Z,8.52
2019-02-21T22:15:26.093Z,8.50
2019-02-21T22:17:55.748Z,8.53
2019-02-21T22:20:25.451Z,8.49
2019-02-21T22:22:54.785Z,8.46
2019-02-21T22:25:24.169Z,8.46
2019-02-21T22:27:53.499Z,8.41
2019-02-21T22:30:22.909Z,8.31
2019-02-21T22:32:52.306Z,8.27
2019-02-21T22:35:21.970Z,8.33
2019-02-21T22:37:51.562Z,8.33
2019-02-21T22:40:22.111Z,8.30
2019-02-21T22:42:51.819Z,8.34
2019-02-21T22:45:21.197Z,8.25
2019-02-21T22:47:50.521Z,8.31
2019-02-21T22:50:20.838Z,8.30
2019-02-21T22:52:50.155Z,8.25
2019-02-21T22:55:19.852Z,8.19
2019-02-21T22:57:49.437Z,8.15
2019-02-21T23:00:42.509Z,8.06
2019-02-21T23:03:12.465Z,8.05
2019-02-21T23:06:29.423Z,8.15
2019-02-21T23:08:58.746Z,8.20
2019-02-21T23:11:28.073Z,8.17
2019-02-21T23:13:57.473Z,8.20
2019-02-21T23:16:27.470Z,8.26
2019-02-21T23:18:56.851Z,8.27
2019-02-21T23:21:26.660Z,8.28
2019-02-21T23:23:56.253Z,8.21
2019-02-21T23:26:25.592Z,8.19
2019-02-21T23:28:54.964Z,8.17
2019-02-21T23:31:24.276Z,8.20
2019-02-21T23:33:55.520Z,8.20
2019-02-21T23:36:25.233Z,8.21
2019-02-21T23:38:54.553Z,8.20
2019-02-21T23:41:25.487Z,8.24
2019-02-21T23:43:54.837Z,8.23
2019-02-21T23:46:24.239Z,8.25
2019-02-21T23:48:53.556Z,8.21
2019-02-21T23:51:23.167Z,8.20
2019-02-21T23:54:02.484Z,8.18
2019-02-21T23:56:23.660Z,8.17
2019-02-21T23:58:53.010Z,8.18
